sensor_id;sensor_type;location;lat;lon;timestamp;pressure;altitude;pressure_sealevel;temperature;humidity
20983;BME280;10650;51.528;6.748;2023-04-04T00:00:30;102789.66;;;3.73;57.78
20983;BME280;10650;51.528;6.748;2023-04-04T00:02:58;102779.84;;;3.70;58.28
20983;BME280;10650;51.528;6.748;2023-04-04T00:05:26;102781.47;;;3.68;57.96
20983;BME280;10650;51.528;6.748;2023-04-04T00:07:55;102791.16;;;3.68;58.20
20983;BME280;10650;51.528;6.748;2023-04-04T00:10:23;102787.47;;;3.64;57.29
20983;BME280;10650;51.528;6.748;2023-04-04T00:12:51;102789.91;;;3.61;58.17
20983;BME280;10650;51.528;6.748;2023-04-04T00:15:19;102785.47;;;3.60;57.83
20983;BME280;10650;51.528;6.748;2023-04-04T00:17:47;102787.19;;;3.59;58.38
20983;BME280;10650;51.528;6.748;2023-04-04T00:20:15;102787.69;;;3.52;58.41
20983;BME280;10650;51.528;6.748;2023-04-04T00:22:43;102788.56;;;3.51;58.28
20983;BME280;10650;51.528;6.748;2023-04-04T00:25:13;102779.63;;;3.49;58.37
20983;BME280;10650;51.528;6.748;2023-04-04T00:27:40;102792.59;;;3.44;58.25
20983;BME280;10650;51.528;6.748;2023-04-04T00:30:09;102790.75;;;3.43;58.79
20983;BME280;10650;51.528;6.748;2023-04-04T00:32:37;102795.16;;;3.43;58.79
20983;BME280;10650;51.528;6.748;2023-04-04T00:35:06;102795.00;;;3.40;59.79
20983;BME280;10650;51.528;6.748;2023-04-04T00:37:34;102793.09;;;3.37;59.57
20983;BME280;10650;51.528;6.748;2023-04-04T00:40:03;102796.47;;;3.35;59.34
20983;BME280;10650;51.528;6.748;2023-04-04T00:42:33;102792.69;;;3.29;59.40
20983;BME280;10650;51.528;6.748;2023-04-04T00:45:01;102797.78;;;3.26;60.20
20983;BME280;10650;51.528;6.748;2023-04-04T00:47:29;102796.06;;;3.27;59.77
20983;BME280;10650;51.528;6.748;2023-04-04T00:49:57;102793.34;;;3.25;59.97
20983;BME280;10650;51.528;6.748;2023-04-04T00:52:25;102787.13;;;3.25;59.34
20983;BME280;10650;51.528;6.748;2023-04-04T00:54:54;102784.25;;;3.20;59.67
20983;BME280;10650;51.528;6.748;2023-04-04T00:57:22;102786.91;;;3.20;59.55
20983;BME280;10650;51.528;6.748;2023-04-04T00:59:52;102793.00;;;3.19;59.74
20983;BME280;10650;51.528;6.748;2023-04-04T01:02:22;102785.06;;;3.19;59.79
20983;BME280;10650;51.528;6.748;2023-04-04T01:04:50;102782.34;;;3.18;60.64
20983;BME280;10650;51.528;6.748;2023-04-04T01:07:18;102778.72;;;3.16;60.73
20983;BME280;10650;51.528;6.748;2023-04-04T01:09:46;102775.84;;;3.11;60.30
20983;BME280;10650;51.528;6.748;2023-04-04T01:12:14;102774.84;;;3.09;60.80
20983;BME280;10650;51.528;6.748;2023-04-04T01:14:42;102771.13;;;3.05;61.34
20983;BME280;10650;51.528;6.748;2023-04-04T01:17:11;102770.06;;;3.02;61.95
20983;BME280;10650;51.528;6.748;2023-04-04T01:19:43;102769.00;;;2.98;61.81
20983;BME280;10650;51.528;6.748;2023-04-04T01:22:13;102771.44;;;2.95;61.85
20983;BME280;10650;51.528;6.748;2023-04-04T01:24:43;102765.09;;;2.91;61.83
20983;BME280;10650;51.528;6.748;2023-04-04T01:27:14;102771.94;;;2.88;61.80
20983;BME280;10650;51.528;6.748;2023-04-04T01:29:42;102772.50;;;2.82;61.74
20983;BME280;10650;51.528;6.748;2023-04-04T01:32:12;102766.16;;;2.79;61.86
20983;BME280;10650;51.528;6.748;2023-04-04T01:34:43;102764.09;;;2.73;61.54
20983;BME280;10650;51.528;6.748;2023-04-04T01:37:18;102769.19;;;2.70;61.96
20983;BME280;10650;51.528;6.748;2023-04-04T01:39:51;102767.44;;;2.70;61.19
20983;BME280;10650;51.528;6.748;2023-04-04T01:42:22;102765.63;;;2.69;61.20
20983;BME280;10650;51.528;6.748;2023-04-04T01:44:53;102763.84;;;2.68;61.02
20983;BME280;10650;51.528;6.748;2023-04-04T01:47:22;102760.34;;;2.69;61.59
20983;BME280;10650;51.528;6.748;2023-04-04T01:49:50;102762.91;;;2.68;61.42
20983;BME280;10650;51.528;6.748;2023-04-04T01:52:19;102762.66;;;2.63;60.64
20983;BME280;10650;51.528;6.748;2023-04-04T01:54:47;102758.09;;;2.60;60.99
20983;BME280;10650;51.528;6.748;2023-04-04T01:57:14;102753.59;;;2.58;60.89
20983;BME280;10650;51.528;6.748;2023-04-04T01:59:44;102756.97;;;2.55;61.04
20983;BME280;10650;51.528;6.748;2023-04-04T02:02:11;102753.31;;;2.53;60.78
20983;BME280;10650;51.528;6.748;2023-04-04T02:04:39;102746.31;;;2.54;61.22
20983;BME280;10650;51.528;6.748;2023-04-04T02:07:07;102760.34;;;2.53;61.61
20983;BME280;10650;51.528;6.748;2023-04-04T02:09:35;102759.34;;;2.51;61.50
20983;BME280;10650;51.528;6.748;2023-04-04T02:12:04;102752.31;;;2.51;60.99
20983;BME280;10650;51.528;6.748;2023-04-04T02:14:31;102749.53;;;2.48;61.12
20983;BME280;10650;51.528;6.748;2023-04-04T02:17:01;102759.16;;;2.48;61.22
20983;BME280;10650;51.528;6.748;2023-04-04T02:19:29;102758.16;;;2.46;61.41
20983;BME280;10650;51.528;6.748;2023-04-04T02:21:56;102752.81;;;2.44;61.43
20983;BME280;10650;51.528;6.748;2023-04-04T02:24:24;102751.63;;;2.39;61.58
20983;BME280;10650;51.528;6.748;2023-04-04T02:26:52;102765.75;;;2.39;61.40
20983;BME280;10650;51.528;6.748;2023-04-04T02:29:20;102764.16;;;2.43;61.96
20983;BME280;10650;51.528;6.748;2023-04-04T02:31:48;102766.66;;;2.40;61.88
20983;BME280;10650;51.528;6.748;2023-04-04T02:34:17;102753.19;;;2.35;61.69
20983;BME280;10650;51.528;6.748;2023-04-04T02:36:45;102754.91;;;2.35;62.13
20983;BME280;10650;51.528;6.748;2023-04-04T02:39:13;102754.81;;;2.33;62.14
20983;BME280;10650;51.528;6.748;2023-04-04T02:41:41;102754.81;;;2.33;62.42
20983;BME280;10650;51.528;6.748;2023-04-04T02:44:08;102748.47;;;2.30;62.62
20983;BME280;10650;51.528;6.748;2023-04-04T02:46:36;102746.47;;;2.25;63.03
20983;BME280;10650;51.528;6.748;2023-04-04T02:49:04;102745.47;;;2.23;63.18
20983;BME280;10650;51.528;6.748;2023-04-04T02:51:33;102738.41;;;2.22;63.13
20983;BME280;10650;51.528;6.748;2023-04-04T02:54:01;102739.94;;;2.19;62.64
20983;BME280;10650;51.528;6.748;2023-04-04T02:56:29;102745.22;;;2.19;62.84
20983;BME280;10650;51.528;6.748;2023-04-04T02:58:57;102748.50;;;2.15;62.65
20983;BME280;10650;51.528;6.748;2023-04-04T03:01:25;102741.41;;;2.14;62.69
20983;BME280;10650;51.528;6.748;2023-04-04T03:03:53;102746.41;;;2.09;62.26
20983;BME280;10650;51.528;6.748;2023-04-04T03:06:21;102746.63;;;2.12;62.20
20983;BME280;10650;51.528;6.748;2023-04-04T03:08:50;102740.41;;;2.12;62.58
20983;BME280;10650;51.528;6.748;2023-04-04T03:11:18;102739.16;;;2.05;62.30
20983;BME280;10650;51.528;6.748;2023-04-04T03:13:47;102739.16;;;2.05;62.40
20983;BME280;10650;51.528;6.748;2023-04-04T03:16:16;102739.16;;;2.05;62.06
20983;BME280;10650;51.528;6.748;2023-04-04T03:18:45;102742.69;;;2.05;62.36
20983;BME280;10650;51.528;6.748;2023-04-04T03:21:13;102741.81;;;2.05;62.08
20983;BME280;10650;51.528;6.748;2023-04-04T03:23:41;102742.78;;;2.07;62.46
20983;BME280;10650;51.528;6.748;2023-04-04T03:26:10;102740.97;;;2.06;62.43
20983;BME280;10650;51.528;6.748;2023-04-04T03:28:38;102744.31;;;2.03;62.55
20983;BME280;10650;51.528;6.748;2023-04-04T03:31:06;102746.88;;;2.02;62.27
20983;BME280;10650;51.528;6.748;2023-04-04T03:33:34;102746.69;;;1.99;62.31
20983;BME280;10650;51.528;6.748;2023-04-04T03:36:08;102739.41;;;1.95;62.43
20983;BME280;10650;51.528;6.748;2023-04-04T03:38:37;102730.53;;;1.93;62.39
20983;BME280;10650;51.528;6.748;2023-04-04T03:41:06;102733.25;;;1.94;62.67
20983;BME280;10650;51.528;6.748;2023-04-04T03:43:35;102728.78;;;1.93;62.80
20983;BME280;10650;51.528;6.748;2023-04-04T03:46:04;102731.50;;;1.95;63.57
20983;BME280;10650;51.528;6.748;2023-04-04T03:48:32;102728.69;;;1.92;62.84
20983;BME280;10650;51.528;6.748;2023-04-04T03:51:01;102735.53;;;1.88;62.95
20983;BME280;10650;51.528;6.748;2023-04-04T03:53:29;102732.91;;;1.88;63.36
20983;BME280;10650;51.528;6.748;2023-04-04T03:55:58;102735.47;;;1.86;63.52
20983;BME280;10650;51.528;6.748;2023-04-04T03:58:27;102726.44;;;1.83;62.85
20983;BME280;10650;51.528;6.748;2023-04-04T04:00:57;102729.25;;;1.86;63.06
20983;BME280;10650;51.528;6.748;2023-04-04T04:03:25;102721.09;;;1.81;63.58
20983;BME280;10650;51.528;6.748;2023-04-04T04:05:53;102726.19;;;1.78;63.68
20983;BME280;10650;51.528;6.748;2023-04-04T04:08:21;102722.53;;;1.76;63.41
20983;BME280;10650;51.528;6.748;2023-04-04T04:10:50;102719.88;;;1.76;63.62
20983;BME280;10650;51.528;6.748;2023-04-04T04:13:20;102718.00;;;1.73;63.39
20983;BME280;10650;51.528;6.748;2023-04-04T04:15:48;102716.19;;;1.72;63.56
20983;BME280;10650;51.528;6.748;2023-04-04T04:18:17;102727.81;;;1.61;63.46
20983;BME280;10650;51.528;6.748;2023-04-04T04:20:45;102727.81;;;1.61;63.95
20983;BME280;10650;51.528;6.748;2023-04-04T04:23:13;102729.56;;;1.61;63.80
20983;BME280;10650;51.528;6.748;2023-04-04T04:25:40;102727.72;;;1.60;64.06
20983;BME280;10650;51.528;6.748;2023-04-04T04:28:08;102724.19;;;1.59;64.76
20983;BME280;10650;51.528;6.748;2023-04-04T04:30:36;102722.47;;;1.60;64.85
20983;BME280;10650;51.528;6.748;2023-04-04T04:33:04;102720.72;;;1.60;64.42
20983;BME280;10650;51.528;6.748;2023-04-04T04:35:36;102717.81;;;1.55;64.11
20983;BME280;10650;51.528;6.748;2023-04-04T04:38:04;102715.09;;;1.54;64.47
20983;BME280;10650;51.528;6.748;2023-04-04T04:40:32;102717.56;;;1.51;64.38
20983;BME280;10650;51.528;6.748;2023-04-04T04:43:00;102713.00;;;1.48;64.35
20983;BME280;10650;51.528;6.748;2023-04-04T04:45:28;102706.63;;;1.45;64.60
20983;BME280;10650;51.528;6.748;2023-04-04T04:47:56;102701.47;;;1.46;64.80
20983;BME280;10650;51.528;6.748;2023-04-04T04:50:24;102706.53;;;1.43;64.92
20983;BME280;10650;51.528;6.748;2023-04-04T04:52:53;102710.00;;;1.42;65.01
20983;BME280;10650;51.528;6.748;2023-04-04T04:55:21;102713.44;;;1.41;64.93
20983;BME280;10650;51.528;6.748;2023-04-04T04:57:49;102712.16;;;1.34;64.68
20983;BME280;10650;51.528;6.748;2023-04-04T05:00:19;102713.09;;;1.35;65.26
20983;BME280;10650;51.528;6.748;2023-04-04T05:02:47;102711.09;;;1.31;65.45
20983;BME280;10650;51.528;6.748;2023-04-04T05:05:15;102710.47;;;1.35;65.32
20983;BME280;10650;51.528;6.748;2023-04-04T05:07:44;102715.81;;;1.36;65.79
20983;BME280;10650;51.528;6.748;2023-04-04T05:10:14;102713.19;;;1.36;65.58
20983;BME280;10650;51.528;6.748;2023-04-04T05:12:42;102713.91;;;1.34;65.70
20983;BME280;10650;51.528;6.748;2023-04-04T05:15:10;102719.34;;;1.37;65.72
20983;BME280;10650;51.528;6.748;2023-04-04T05:17:38;102717.53;;;1.36;66.07
20983;BME280;10650;51.528;6.748;2023-04-04T05:20:08;102730.78;;;1.37;65.68
20983;BME280;10650;51.528;6.748;2023-04-04T05:22:35;102733.22;;;1.34;65.30
20983;BME280;10650;51.528;6.748;2023-04-04T05:25:04;102734.34;;;1.38;66.01
20983;BME280;10650;51.528;6.748;2023-04-04T05:27:33;102733.91;;;1.45;66.19
20983;BME280;10650;51.528;6.748;2023-04-04T05:30:01;102732.16;;;1.46;65.81
20983;BME280;10650;51.528;6.748;2023-04-04T05:32:29;102729.63;;;1.47;65.14
20983;BME280;10650;51.528;6.748;2023-04-04T05:34:57;102729.78;;;1.50;65.67
20983;BME280;10650;51.528;6.748;2023-04-04T05:37:25;102733.81;;;1.59;66.14
20983;BME280;10650;51.528;6.748;2023-04-04T05:39:53;102731.56;;;1.65;65.58
20983;BME280;10650;51.528;6.748;2023-04-04T05:42:20;102729.28;;;1.71;65.65
20983;BME280;10650;51.528;6.748;2023-04-04T05:44:50;102736.38;;;1.72;64.84
20983;BME280;10650;51.528;6.748;2023-04-04T05:47:18;102735.72;;;1.76;65.22
20983;BME280;10650;51.528;6.748;2023-04-04T05:49:47;102729.00;;;1.81;64.91
20983;BME280;10650;51.528;6.748;2023-04-04T05:52:15;102734.53;;;1.86;64.84
20983;BME280;10650;51.528;6.748;2023-04-04T05:54:43;102735.38;;;1.85;64.88
20983;BME280;10650;51.528;6.748;2023-04-04T05:57:11;102735.25;;;1.83;64.48
20983;BME280;10650;51.528;6.748;2023-04-04T05:59:38;102741.72;;;1.88;64.26
20983;BME280;10650;51.528;6.748;2023-04-04T06:02:08;102745.44;;;1.92;64.38
20983;BME280;10650;51.528;6.748;2023-04-04T06:04:35;102750.19;;;1.98;64.46
20983;BME280;10650;51.528;6.748;2023-04-04T06:07:06;102766.25;;;2.02;63.75
20983;BME280;10650;51.528;6.748;2023-04-04T06:09:34;102760.25;;;2.05;63.96
20983;BME280;10650;51.528;6.748;2023-04-04T06:12:02;102766.78;;;2.12;64.06
20983;BME280;10650;51.528;6.748;2023-04-04T06:14:30;102772.31;;;2.16;63.40
20983;BME280;10650;51.528;6.748;2023-04-04T06:16:58;102778.78;;;2.21;63.46
20983;BME280;10650;51.528;6.748;2023-04-04T06:19:27;102774.41;;;2.22;63.77
20983;BME280;10650;51.528;6.748;2023-04-04T06:21:55;102780.22;;;2.31;63.45
20983;BME280;10650;51.528;6.748;2023-04-04T06:24:37;102777.03;;;2.37;63.34
20983;BME280;10650;51.528;6.748;2023-04-04T06:27:06;102782.31;;;2.37;62.92
20983;BME280;10650;51.528;6.748;2023-04-04T06:29:34;102788.56;;;2.39;63.04
20983;BME280;10650;51.528;6.748;2023-04-04T06:32:03;102783.53;;;2.43;62.69
20983;BME280;10650;51.528;6.748;2023-04-04T06:34:34;102793.53;;;2.49;62.76
20983;BME280;10650;51.528;6.748;2023-04-04T06:37:02;102776.06;;;2.51;62.38
20983;BME280;10650;51.528;6.748;2023-04-04T06:39:30;102791.00;;;2.51;61.99
20983;BME280;10650;51.528;6.748;2023-04-04T06:41:59;102787.78;;;2.56;62.53
20983;BME280;10650;51.528;6.748;2023-04-04T06:44:27;102785.50;;;2.63;62.51
20983;BME280;10650;51.528;6.748;2023-04-04T06:46:55;102786.31;;;2.62;62.17
20983;BME280;10650;51.528;6.748;2023-04-04T06:49:23;102779.59;;;2.67;61.84
20983;BME280;10650;51.528;6.748;2023-04-04T06:51:52;102782.41;;;2.70;62.29
20983;BME280;10650;51.528;6.748;2023-04-04T06:54:20;102796.56;;;2.72;62.01
20983;BME280;10650;51.528;6.748;2023-04-04T06:56:48;102788.09;;;2.77;62.09
20983;BME280;10650;51.528;6.748;2023-04-04T06:59:17;102790.69;;;2.92;62.07
20983;BME280;10650;51.528;6.748;2023-04-04T07:01:45;102782.53;;;3.04;62.27
20983;BME280;10650;51.528;6.748;2023-04-04T07:04:12;102782.13;;;3.13;62.25
20983;BME280;10650;51.528;6.748;2023-04-04T07:06:40;102791.44;;;3.23;62.06
20983;BME280;10650;51.528;6.748;2023-04-04T07:09:11;102788.69;;;3.38;61.95
20983;BME280;10650;51.528;6.748;2023-04-04T07:11:54;102787.69;;;3.52;61.96
20983;BME280;10650;51.528;6.748;2023-04-04T07:14:22;102790.75;;;3.60;61.30
20983;BME280;10650;51.528;6.748;2023-04-04T07:16:51;102790.50;;;3.72;60.98
20983;BME280;10650;51.528;6.748;2023-04-04T07:19:20;102789.09;;;3.78;60.12
20983;BME280;10650;51.528;6.748;2023-04-04T07:21:50;102785.50;;;3.78;59.73
20983;BME280;10650;51.528;6.748;2023-04-04T07:24:19;102792.91;;;3.85;59.55
20983;BME280;10650;51.528;6.748;2023-04-04T07:26:47;102787.97;;;3.91;59.00
20983;BME280;10650;51.528;6.748;2023-04-04T07:29:15;102780.50;;;4.01;58.89
20983;BME280;10650;51.528;6.748;2023-04-04T07:31:42;102775.41;;;4.05;58.20
20983;BME280;10650;51.528;6.748;2023-04-04T07:34:11;102774.16;;;4.15;58.10
20983;BME280;10650;51.528;6.748;2023-04-04T07:36:39;102772.94;;;4.26;58.24
20983;BME280;10650;51.528;6.748;2023-04-04T07:39:07;102777.78;;;4.35;58.03
20983;BME280;10650;51.528;6.748;2023-04-04T07:41:36;102780.66;;;4.40;56.45
20983;BME280;10650;51.528;6.748;2023-04-04T07:44:04;102773.25;;;4.50;56.48
20983;BME280;10650;51.528;6.748;2023-04-04T07:46:32;102778.91;;;4.58;55.84
20983;BME280;10650;51.528;6.748;2023-04-04T07:49:00;102779.91;;;4.60;54.87
20983;BME280;10650;51.528;6.748;2023-04-04T07:51:28;102764.97;;;4.62;54.53
20983;BME280;10650;51.528;6.748;2023-04-04T07:53:56;102776.91;;;4.72;54.74
20983;BME280;10650;51.528;6.748;2023-04-04T07:56:24;102774.63;;;4.80;54.33
20983;BME280;10650;51.528;6.748;2023-04-04T07:58:53;102764.34;;;4.86;54.70
20983;BME280;10650;51.528;6.748;2023-04-04T08:01:21;102765.31;;;4.88;54.22
20983;BME280;10650;51.528;6.748;2023-04-04T08:03:49;102765.50;;;4.93;52.88
20983;BME280;10650;51.528;6.748;2023-04-04T08:06:19;102761.91;;;4.91;51.44
20983;BME280;10650;51.528;6.748;2023-04-04T08:08:47;102767.47;;;4.97;51.47
20983;BME280;10650;51.528;6.748;2023-04-04T08:11:16;102773.06;;;5.03;50.13
20983;BME280;10650;51.528;6.748;2023-04-04T08:13:44;102772.47;;;5.09;49.21
20983;BME280;10650;51.528;6.748;2023-04-04T08:16:13;102769.25;;;5.16;49.53
20983;BME280;10650;51.528;6.748;2023-04-04T08:18:41;102769.66;;;5.25;49.12
20983;BME280;10650;51.528;6.748;2023-04-04T08:21:10;102771.75;;;5.32;49.02
20983;BME280;10650;51.528;6.748;2023-04-04T08:23:37;102765.75;;;5.36;48.60
20983;BME280;10650;51.528;6.748;2023-04-04T08:26:05;102765.94;;;5.41;48.17
20983;BME280;10650;51.528;6.748;2023-04-04T08:28:33;102766.38;;;5.50;48.01
20983;BME280;10650;51.528;6.748;2023-04-04T08:31:01;102767.59;;;5.59;48.21
20983;BME280;10650;51.528;6.748;2023-04-04T08:33:31;102771.50;;;5.67;48.32
20983;BME280;10650;51.528;6.748;2023-04-04T08:36:12;102767.63;;;5.80;48.61
20983;BME280;10650;51.528;6.748;2023-04-04T08:38:40;102770.34;;;5.81;47.28
20983;BME280;10650;51.528;6.748;2023-04-04T08:41:08;102777.22;;;5.76;46.51
20983;BME280;10650;51.528;6.748;2023-04-04T08:43:37;102768.97;;;5.70;46.77
20983;BME280;10650;51.528;6.748;2023-04-04T08:46:08;102765.41;;;5.69;46.59
20983;BME280;10650;51.528;6.748;2023-04-04T08:48:41;102762.97;;;5.74;46.81
20983;BME280;10650;51.528;6.748;2023-04-04T08:51:13;102763.25;;;5.80;47.32
20983;BME280;10650;51.528;6.748;2023-04-04T08:53:41;102769.31;;;5.78;46.73
20983;BME280;10650;51.528;6.748;2023-04-04T08:56:09;102769.44;;;5.81;47.05
20983;BME280;10650;51.528;6.748;2023-04-04T08:58:37;102771.72;;;5.93;47.43
20983;BME280;10650;51.528;6.748;2023-04-04T09:01:06;102765.78;;;5.98;46.16
20983;BME280;10650;51.528;6.748;2023-04-04T09:03:35;102766.97;;;6.05;46.45
20983;BME280;10650;51.528;6.748;2023-04-04T09:06:06;102757.66;;;6.15;47.29
20983;BME280;10650;51.528;6.748;2023-04-04T09:08:34;102761.13;;;6.14;46.17
20983;BME280;10650;51.528;6.748;2023-04-04T09:11:03;102761.97;;;6.13;46.23
20983;BME280;10650;51.528;6.748;2023-04-04T09:13:31;102757.78;;;6.18;46.61
20983;BME280;10650;51.528;6.748;2023-04-04T09:15:59;102753.81;;;6.29;46.82
20983;BME280;10650;51.528;6.748;2023-04-04T09:18:27;102755.88;;;6.36;46.08
20983;BME280;10650;51.528;6.748;2023-04-04T09:20:55;102746.91;;;6.34;45.21
20983;BME280;10650;51.528;6.748;2023-04-04T09:23:24;102742.38;;;6.32;45.76
20983;BME280;10650;51.528;6.748;2023-04-04T09:25:53;102739.94;;;6.36;45.43
20983;BME280;10650;51.528;6.748;2023-04-04T09:28:30;102740.94;;;6.40;45.21
20983;BME280;10650;51.528;6.748;2023-04-04T09:30:59;102738.56;;;6.46;46.11
20983;BME280;10650;51.528;6.748;2023-04-04T09:33:27;102741.47;;;6.52;46.11
20983;BME280;10650;51.528;6.748;2023-04-04T09:35:57;102741.75;;;6.60;45.22
20983;BME280;10650;51.528;6.748;2023-04-04T09:38:28;102732.34;;;6.68;44.50
20983;BME280;10650;51.528;6.748;2023-04-04T09:40:57;102736.00;;;6.72;44.36
20983;BME280;10650;51.528;6.748;2023-04-04T09:43:25;102740.03;;;6.85;44.85
20983;BME280;10650;51.528;6.748;2023-04-04T09:45:56;102749.56;;;7.02;44.68
20983;BME280;10650;51.528;6.748;2023-04-04T09:48:26;102738.31;;;7.09;44.29
20983;BME280;10650;51.528;6.748;2023-04-04T09:50:55;102739.63;;;7.21;44.12
20983;BME280;10650;51.528;6.748;2023-04-04T09:53:24;102730.16;;;7.29;44.22
20983;BME280;10650;51.528;6.748;2023-04-04T09:55:54;102733.78;;;7.31;43.56
20983;BME280;10650;51.528;6.748;2023-04-04T09:58:25;102729.22;;;7.27;42.72
20983;BME280;10650;51.528;6.748;2023-04-04T10:00:55;102724.69;;;7.24;44.26
20983;BME280;10650;51.528;6.748;2023-04-04T10:03:23;102738.31;;;7.34;44.18
20983;BME280;10650;51.528;6.748;2023-04-04T10:05:55;102731.28;;;7.36;42.99
20983;BME280;10650;51.528;6.748;2023-04-04T10:08:27;102734.75;;;7.33;42.97
20983;BME280;10650;51.528;6.748;2023-04-04T10:10:57;102726.13;;;7.40;43.10
20983;BME280;10650;51.528;6.748;2023-04-04T10:13:36;102719.34;;;7.49;43.68
20983;BME280;10650;51.528;6.748;2023-04-04T10:16:07;102717.97;;;7.60;43.89
20983;BME280;10650;51.528;6.748;2023-04-04T10:18:36;102718.06;;;7.63;42.29
20983;BME280;10650;51.528;6.748;2023-04-04T10:21:06;102722.09;;;7.52;41.73
20983;BME280;10650;51.528;6.748;2023-04-04T10:23:37;102711.50;;;7.53;41.54
20983;BME280;10650;51.528;6.748;2023-04-04T10:26:08;102715.25;;;7.58;41.54
20983;BME280;10650;51.528;6.748;2023-04-04T10:28:36;102715.84;;;7.50;41.77
20983;BME280;10650;51.528;6.748;2023-04-04T10:31:08;102708.13;;;7.57;42.20
20983;BME280;10650;51.528;6.748;2023-04-04T10:33:47;102709.28;;;7.66;42.16
20983;BME280;10650;51.528;6.748;2023-04-04T10:36:21;102698.75;;;7.69;40.34
20983;BME280;10650;51.528;6.748;2023-04-04T10:38:57;102700.53;;;7.68;40.96
20983;BME280;10650;51.528;6.748;2023-04-04T10:41:32;102696.56;;;7.83;41.55
20983;BME280;10650;51.528;6.748;2023-04-04T10:44:07;102705.16;;;8.01;40.67
20983;BME280;10650;51.528;6.748;2023-04-04T10:46:38;102698.81;;;7.97;40.33
20983;BME280;10650;51.528;6.748;2023-04-04T10:49:09;102695.38;;;8.00;40.24
20983;BME280;10650;51.528;6.748;2023-04-04T10:51:37;102687.63;;;8.08;40.95
20983;BME280;10650;51.528;6.748;2023-04-04T10:54:21;102682.59;;;8.17;40.54
20983;BME280;10650;51.528;6.748;2023-04-04T10:56:51;102675.50;;;8.18;40.47
20983;BME280;10650;51.528;6.748;2023-04-04T10:59:19;102672.88;;;8.19;40.94
20983;BME280;10650;51.528;6.748;2023-04-04T11:01:49;102677.72;;;8.31;40.47
20983;BME280;10650;51.528;6.748;2023-04-04T11:04:18;102676.72;;;8.27;40.04
20983;BME280;10650;51.528;6.748;2023-04-04T11:07:13;102672.50;;;8.34;39.75
20983;BME280;10650;51.528;6.748;2023-04-04T11:09:49;102660.91;;;8.34;40.13
20983;BME280;10650;51.528;6.748;2023-04-04T11:12:26;102653.44;;;8.49;40.43
20983;BME280;10650;51.528;6.748;2023-04-04T11:14:56;102655.59;;;8.62;40.67
20983;BME280;10650;51.528;6.748;2023-04-04T11:17:43;102650.25;;;8.62;39.25
20983;BME280;10650;51.528;6.748;2023-04-04T11:20:18;102647.59;;;8.62;40.08
20983;BME280;10650;51.528;6.748;2023-04-04T11:22:48;102642.34;;;8.64;39.71
20983;BME280;10650;51.528;6.748;2023-04-04T11:25:37;102648.44;;;8.60;38.94
20983;BME280;10650;51.528;6.748;2023-04-04T11:28:14;102652.00;;;8.60;38.48
20983;BME280;10650;51.528;6.748;2023-04-04T11:31:22;102644.63;;;8.52;38.93
20983;BME280;10650;51.528;6.748;2023-04-04T11:33:54;102633.00;;;8.49;38.79
20983;BME280;10650;51.528;6.748;2023-04-04T11:36:22;102636.72;;;8.55;37.99
20983;BME280;10650;51.528;6.748;2023-04-04T11:39:02;102640.19;;;8.52;38.47
20983;BME280;10650;51.528;6.748;2023-04-04T11:41:42;102635.91;;;8.57;38.14
20983;BME280;10650;51.528;6.748;2023-04-04T11:44:13;102639.16;;;8.47;38.20
20983;BME280;10650;51.528;6.748;2023-04-04T11:46:43;102631.25;;;8.50;38.76
20983;BME280;10650;51.528;6.748;2023-04-04T11:49:13;102621.16;;;8.69;39.09
20983;BME280;10650;51.528;6.748;2023-04-04T11:51:41;102629.22;;;8.72;39.10
20983;BME280;10650;51.528;6.748;2023-04-04T11:54:12;102619.38;;;8.69;38.99
20983;BME280;10650;51.528;6.748;2023-04-04T11:56:42;102620.59;;;8.80;39.12
20983;BME280;10650;51.528;6.748;2023-04-04T11:59:15;102617.97;;;8.82;38.96
20983;BME280;10650;51.528;6.748;2023-04-04T12:01:44;102616.19;;;8.82;37.25
20983;BME280;10650;51.528;6.748;2023-04-04T12:04:14;102619.91;;;8.88;37.35
20983;BME280;10650;51.528;6.748;2023-04-04T12:06:46;102619.22;;;8.95;37.82
20983;BME280;10650;51.528;6.748;2023-04-04T12:09:14;102626.00;;;8.83;38.61
20983;BME280;10650;51.528;6.748;2023-04-04T12:11:44;102616.34;;;8.87;38.01
20983;BME280;10650;51.528;6.748;2023-04-04T12:14:17;102614.06;;;9.03;39.39
20983;BME280;10650;51.528;6.748;2023-04-04T12:16:47;102608.13;;;9.11;39.38
20983;BME280;10650;51.528;6.748;2023-04-04T12:19:15;102601.09;;;9.15;38.42
20983;BME280;10650;51.528;6.748;2023-04-04T12:21:44;102595.91;;;9.21;38.09
20983;BME280;10650;51.528;6.748;2023-04-04T12:24:13;102590.91;;;9.33;38.60
20983;BME280;10650;51.528;6.748;2023-04-04T12:26:42;102586.06;;;9.53;38.79
20983;BME280;10650;51.528;6.748;2023-04-04T12:29:12;102583.81;;;9.70;38.26
20983;BME280;10650;51.528;6.748;2023-04-04T12:31:43;102591.13;;;9.79;37.83
20983;BME280;10650;51.528;6.748;2023-04-04T12:34:15;102581.31;;;9.78;37.96
20983;BME280;10650;51.528;6.748;2023-04-04T12:36:46;102573.84;;;9.63;37.34
20983;BME280;10650;51.528;6.748;2023-04-04T12:39:15;102570.38;;;9.66;37.55
20983;BME280;10650;51.528;6.748;2023-04-04T12:41:47;102563.22;;;9.65;36.88
20983;BME280;10650;51.528;6.748;2023-04-04T12:44:25;102564.09;;;9.65;37.36
20983;BME280;10650;51.528;6.748;2023-04-04T12:46:57;102558.19;;;9.77;37.34
20983;BME280;10650;51.528;6.748;2023-04-04T12:49:27;102559.16;;;9.82;36.19
20983;BME280;10650;51.528;6.748;2023-04-04T12:51:57;102552.16;;;9.86;36.18
20983;BME280;10650;51.528;6.748;2023-04-04T12:54:29;102554.78;;;9.84;36.05
20983;BME280;10650;51.528;6.748;2023-04-04T12:56:58;102546.75;;;9.83;36.35
20983;BME280;10650;51.528;6.748;2023-04-04T12:59:30;102545.91;;;9.87;36.48
20983;BME280;10650;51.528;6.748;2023-04-04T13:02:01;102540.59;;;9.87;36.36
20983;BME280;10650;51.528;6.748;2023-04-04T13:04:30;102538.03;;;9.92;36.34
20983;BME280;10650;51.528;6.748;2023-04-04T13:06:58;102525.53;;;9.91;36.00
20983;BME280;10650;51.528;6.748;2023-04-04T13:09:27;102523.75;;;9.90;36.80
20983;BME280;10650;51.528;6.748;2023-04-04T13:11:57;102521.22;;;9.96;36.35